Terminal Aerodrome Forecast
Issued by NWS

Home | Current Version | Previous Version | Text Only | Print | Product List | Glossary On
Versions: 1 2 3 4 5 6 7 8 9 10 11 12 13 14 15
759
FTUS45 KTFX 031738
TAFLWT
TAF
KLWT 031738Z 0318/0418 23014KT P6SM SCT070 BKN120
      TEMPO 0319/0322 24020G30KT
     FM040100 24011KT P6SM SCT070 BKN100=

USA.gov is the U.S. government's official web portal to all federal, state and local government web resources and services.